sensor_id;sensor_type;location;lat;lon;timestamp;pressure;altitude;pressure_sealevel;temperature;humidity
4972;BME280;2501;51.214;6.768;2023-06-22T00:01:25;101463.63;;;22.66;53.67
4972;BME280;2501;51.214;6.768;2023-06-22T00:03:56;101469.59;;;23.02;52.05
4972;BME280;2501;51.214;6.768;2023-06-22T00:06:24;101469.78;;;22.96;52.53
4972;BME280;2501;51.214;6.768;2023-06-22T00:08:53;101463.72;;;22.90;52.09
4972;BME280;2501;51.214;6.768;2023-06-22T00:11:21;101470.22;;;22.54;53.79
4972;BME280;2501;51.214;6.768;2023-06-22T00:13:50;101462.16;;;22.55;54.38
4972;BME280;2501;51.214;6.768;2023-06-22T00:16:18;101471.31;;;22.48;53.62
4972;BME280;2501;51.214;6.768;2023-06-22T00:18:46;101465.88;;;22.79;53.49
4972;BME280;2501;51.214;6.768;2023-06-22T00:21:17;101461.53;;;22.75;53.68
4972;BME280;2501;51.214;6.768;2023-06-22T00:23:47;101462.38;;;22.76;54.56
4972;BME280;2501;51.214;6.768;2023-06-22T00:26:15;101452.75;;;22.70;54.25
4972;BME280;2501;51.214;6.768;2023-06-22T00:28:43;101453.09;;;22.61;54.23
4972;BME280;2501;51.214;6.768;2023-06-22T00:31:12;101463.81;;;22.60;55.42
4972;BME280;2501;51.214;6.768;2023-06-22T00:33:40;101465.81;;;22.53;55.33
4972;BME280;2501;51.214;6.768;2023-06-22T00:36:09;101460.78;;;22.44;55.65
4972;BME280;2501;51.214;6.768;2023-06-22T00:38:41;101466.16;;;22.14;55.86
4972;BME280;2501;51.214;6.768;2023-06-22T00:41:10;101462.31;;;22.23;55.40
4972;BME280;2501;51.214;6.768;2023-06-22T00:43:38;101469.41;;;22.24;56.59
4972;BME280;2501;51.214;6.768;2023-06-22T00:46:07;101470.38;;;22.21;56.74
4972;BME280;2501;51.214;6.768;2023-06-22T00:48:36;101459.38;;;22.03;57.03
4972;BME280;2501;51.214;6.768;2023-06-22T00:51:07;101460.56;;;22.22;56.11
4972;BME280;2501;51.214;6.768;2023-06-22T00:53:35;101460.25;;;22.03;56.32
4972;BME280;2501;51.214;6.768;2023-06-22T00:56:07;101463.06;;;21.99;57.07
4972;BME280;2501;51.214;6.768;2023-06-22T00:58:38;101466.41;;;22.35;55.89
4972;BME280;2501;51.214;6.768;2023-06-22T01:01:07;101462.03;;;22.03;56.80
4972;BME280;2501;51.214;6.768;2023-06-22T01:03:36;101460.94;;;22.10;57.06
4972;BME280;2501;51.214;6.768;2023-06-22T01:06:08;101460.44;;;21.97;57.73
4972;BME280;2501;51.214;6.768;2023-06-22T01:08:44;101457.94;;;22.20;57.76
4972;BME280;2501;51.214;6.768;2023-06-22T01:11:21;101456.84;;;21.67;58.89
4972;BME280;2501;51.214;6.768;2023-06-22T01:14:00;101459.19;;;21.79;59.14
4972;BME280;2501;51.214;6.768;2023-06-22T01:16:33;101459.75;;;21.89;59.80
4972;BME280;2501;51.214;6.768;2023-06-22T01:19:11;101450.53;;;21.70;60.40
4972;BME280;2501;51.214;6.768;2023-06-22T01:21:45;101441.78;;;21.96;60.01
4972;BME280;2501;51.214;6.768;2023-06-22T01:24:17;101441.78;;;21.96;59.62
4972;BME280;2501;51.214;6.768;2023-06-22T01:26:56;101440.28;;;21.85;60.38
4972;BME280;2501;51.214;6.768;2023-06-22T01:29:29;101445.25;;;21.68;61.23
4972;BME280;2501;51.214;6.768;2023-06-22T01:31:59;101439.84;;;21.70;61.10
4972;BME280;2501;51.214;6.768;2023-06-22T01:34:29;101440.06;;;21.64;61.86
4972;BME280;2501;51.214;6.768;2023-06-22T01:37:00;101429.19;;;21.70;61.46
4972;BME280;2501;51.214;6.768;2023-06-22T01:39:29;101425.41;;;21.77;61.65
4972;BME280;2501;51.214;6.768;2023-06-22T01:41:58;101431.78;;;22.02;61.23
4972;BME280;2501;51.214;6.768;2023-06-22T01:44:30;101422.28;;;21.63;63.01
4972;BME280;2501;51.214;6.768;2023-06-22T01:47:00;101425.34;;;21.49;62.97
4972;BME280;2501;51.214;6.768;2023-06-22T01:49:28;101427.09;;;21.50;63.28
4972;BME280;2501;51.214;6.768;2023-06-22T01:51:57;101428.78;;;21.52;63.89
4972;BME280;2501;51.214;6.768;2023-06-22T01:54:26;101429.78;;;21.48;63.92
4972;BME280;2501;51.214;6.768;2023-06-22T01:56:55;101436.03;;;21.47;64.25
4972;BME280;2501;51.214;6.768;2023-06-22T01:59:26;101426.31;;;21.46;64.55
4972;BME280;2501;51.214;6.768;2023-06-22T02:02:04;101424.63;;;21.73;63.77
4972;BME280;2501;51.214;6.768;2023-06-22T02:04:37;101429.75;;;21.50;64.46
4972;BME280;2501;51.214;6.768;2023-06-22T02:07:12;101425.88;;;21.62;63.63
4972;BME280;2501;51.214;6.768;2023-06-22T02:09:44;101429.47;;;21.61;64.65
4972;BME280;2501;51.214;6.768;2023-06-22T02:12:13;101418.47;;;21.71;64.26
4972;BME280;2501;51.214;6.768;2023-06-22T02:14:45;101430.28;;;21.63;64.69
4972;BME280;2501;51.214;6.768;2023-06-22T02:17:17;101421.78;;;21.79;64.18
4972;BME280;2501;51.214;6.768;2023-06-22T02:19:46;101423.81;;;21.71;64.11
4972;BME280;2501;51.214;6.768;2023-06-22T02:22:14;101428.50;;;21.63;64.69
4972;BME280;2501;51.214;6.768;2023-06-22T02:24:43;101428.00;;;21.49;64.78
4972;BME280;2501;51.214;6.768;2023-06-22T02:27:11;101415.56;;;21.48;66.14
4972;BME280;2501;51.214;6.768;2023-06-22T02:29:40;101420.66;;;21.57;65.15
4972;BME280;2501;51.214;6.768;2023-06-22T02:32:08;101403.44;;;21.67;65.11
4972;BME280;2501;51.214;6.768;2023-06-22T02:34:39;101408.78;;;21.36;65.57
4972;BME280;2501;51.214;6.768;2023-06-22T02:37:08;101411.53;;;21.33;66.43
4972;BME280;2501;51.214;6.768;2023-06-22T02:39:38;101412.03;;;21.47;65.99
4972;BME280;2501;51.214;6.768;2023-06-22T02:42:07;101406.66;;;21.16;67.14
4972;BME280;2501;51.214;6.768;2023-06-22T02:44:36;101400.16;;;21.28;66.80
4972;BME280;2501;51.214;6.768;2023-06-22T02:47:04;101396.88;;;21.48;67.00
4972;BME280;2501;51.214;6.768;2023-06-22T02:49:33;101401.25;;;21.50;66.16
4972;BME280;2501;51.214;6.768;2023-06-22T02:52:04;101399.28;;;21.28;67.23
4972;BME280;2501;51.214;6.768;2023-06-22T02:54:33;101392.97;;;21.61;66.26
4972;BME280;2501;51.214;6.768;2023-06-22T02:57:01;101385.13;;;21.55;65.96
4972;BME280;2501;51.214;6.768;2023-06-22T02:59:30;101390.56;;;21.21;67.37
4972;BME280;2501;51.214;6.768;2023-06-22T03:01:58;101389.03;;;21.43;66.78
4972;BME280;2501;51.214;6.768;2023-06-22T03:04:28;101380.34;;;21.66;66.41
4972;BME280;2501;51.214;6.768;2023-06-22T03:06:56;101378.66;;;21.64;67.32
4972;BME280;2501;51.214;6.768;2023-06-22T03:09:29;101377.56;;;21.40;68.19
4972;BME280;2501;51.214;6.768;2023-06-22T03:11:57;101381.28;;;21.34;69.33
4972;BME280;2501;51.214;6.768;2023-06-22T03:14:27;101381.16;;;21.39;69.46
4972;BME280;2501;51.214;6.768;2023-06-22T03:16:55;101376.31;;;21.22;69.85
4972;BME280;2501;51.214;6.768;2023-06-22T03:19:27;101371.69;;;21.29;70.14
4972;BME280;2501;51.214;6.768;2023-06-22T03:21:56;101372.69;;;21.25;70.65
4972;BME280;2501;51.214;6.768;2023-06-22T03:24:25;101374.81;;;21.10;71.00
4972;BME280;2501;51.214;6.768;2023-06-22T03:26:56;101371.94;;;21.18;71.07
4972;BME280;2501;51.214;6.768;2023-06-22T03:29:25;101370.44;;;21.08;71.41
4972;BME280;2501;51.214;6.768;2023-06-22T03:31:54;101366.94;;;21.06;71.92
4972;BME280;2501;51.214;6.768;2023-06-22T03:34:23;101365.00;;;21.12;71.79
4972;BME280;2501;51.214;6.768;2023-06-22T03:36:51;101356.81;;;21.18;72.19
4972;BME280;2501;51.214;6.768;2023-06-22T03:39:19;101345.03;;;20.95;72.71
4972;BME280;2501;51.214;6.768;2023-06-22T03:41:48;101353.78;;;21.00;73.09
4972;BME280;2501;51.214;6.768;2023-06-22T03:44:19;101347.75;;;20.93;72.76
4972;BME280;2501;51.214;6.768;2023-06-22T03:46:47;101346.91;;;20.91;73.10
4972;BME280;2501;51.214;6.768;2023-06-22T03:49:16;101357.16;;;21.06;72.76
4972;BME280;2501;51.214;6.768;2023-06-22T03:51:44;101354.34;;;20.78;72.34
4972;BME280;2501;51.214;6.768;2023-06-22T03:54:13;101347.53;;;21.01;73.22
4972;BME280;2501;51.214;6.768;2023-06-22T03:56:41;101338.91;;;20.91;71.81
4972;BME280;2501;51.214;6.768;2023-06-22T03:59:09;101347.16;;;20.82;71.44
4972;BME280;2501;51.214;6.768;2023-06-22T04:01:40;101343.75;;;20.77;72.12
4972;BME280;2501;51.214;6.768;2023-06-22T04:04:10;101354.44;;;21.08;70.29
4972;BME280;2501;51.214;6.768;2023-06-22T04:06:38;101356.63;;;21.26;70.16
4972;BME280;2501;51.214;6.768;2023-06-22T04:09:06;101363.09;;;21.16;70.35
4972;BME280;2501;51.214;6.768;2023-06-22T04:11:35;101352.50;;;21.13;70.95
4972;BME280;2501;51.214;6.768;2023-06-22T04:14:03;101350.53;;;21.21;70.93
4972;BME280;2501;51.214;6.768;2023-06-22T04:16:32;101350.53;;;21.21;70.86
4972;BME280;2501;51.214;6.768;2023-06-22T04:19:03;101350.78;;;21.12;71.73
4972;BME280;2501;51.214;6.768;2023-06-22T04:21:32;101354.03;;;20.91;72.99
4972;BME280;2501;51.214;6.768;2023-06-22T04:24:00;101350.59;;;21.19;71.63
4972;BME280;2501;51.214;6.768;2023-06-22T04:26:29;101351.53;;;21.15;71.45
4972;BME280;2501;51.214;6.768;2023-06-22T04:29:02;101341.34;;;21.31;71.46
4972;BME280;2501;51.214;6.768;2023-06-22T04:31:31;101342.56;;;21.50;70.49
4972;BME280;2501;51.214;6.768;2023-06-22T04:34:06;101355.78;;;21.24;71.58
4972;BME280;2501;51.214;6.768;2023-06-22T04:36:35;101344.56;;;21.11;71.75
4972;BME280;2501;51.214;6.768;2023-06-22T04:39:06;101352.16;;;20.94;72.01
4972;BME280;2501;51.214;6.768;2023-06-22T04:41:35;101348.44;;;21.00;71.86
4972;BME280;2501;51.214;6.768;2023-06-22T04:44:09;101355.59;;;21.30;70.73
4972;BME280;2501;51.214;6.768;2023-06-22T04:46:38;101360.16;;;21.27;70.94
4972;BME280;2501;51.214;6.768;2023-06-22T04:49:10;101351.75;;;21.40;68.76
4972;BME280;2501;51.214;6.768;2023-06-22T04:51:39;101349.84;;;21.45;69.11
4972;BME280;2501;51.214;6.768;2023-06-22T04:54:09;101352.94;;;21.30;69.08
4972;BME280;2501;51.214;6.768;2023-06-22T04:56:38;101353.47;;;21.43;69.02
4972;BME280;2501;51.214;6.768;2023-06-22T04:59:07;101351.69;;;21.43;68.37
4972;BME280;2501;51.214;6.768;2023-06-22T05:01:38;101358.09;;;21.36;69.08
4972;BME280;2501;51.214;6.768;2023-06-22T05:04:09;101355.06;;;21.48;68.62
4972;BME280;2501;51.214;6.768;2023-06-22T05:06:38;101344.94;;;21.89;66.58
4972;BME280;2501;51.214;6.768;2023-06-22T05:09:07;101342.16;;;21.92;65.70
4972;BME280;2501;51.214;6.768;2023-06-22T05:11:35;101336.44;;;21.76;65.90
4972;BME280;2501;51.214;6.768;2023-06-22T05:14:03;101341.56;;;21.82;65.63
4972;BME280;2501;51.214;6.768;2023-06-22T05:16:32;101351.63;;;21.74;65.42
4972;BME280;2501;51.214;6.768;2023-06-22T05:19:01;101346.13;;;21.49;66.12
4972;BME280;2501;51.214;6.768;2023-06-22T05:21:32;101347.16;;;21.75;67.07
4972;BME280;2501;51.214;6.768;2023-06-22T05:24:01;101359.94;;;21.93;65.39
4972;BME280;2501;51.214;6.768;2023-06-22T05:26:30;101360.22;;;21.54;66.63
4972;BME280;2501;51.214;6.768;2023-06-22T05:29:01;101351.22;;;21.86;65.85
4972;BME280;2501;51.214;6.768;2023-06-22T05:31:30;101349.13;;;21.98;65.27
4972;BME280;2501;51.214;6.768;2023-06-22T05:33:58;101356.09;;;21.74;66.40
4972;BME280;2501;51.214;6.768;2023-06-22T05:36:27;101355.19;;;22.03;65.02
4972;BME280;2501;51.214;6.768;2023-06-22T05:38:59;101358.09;;;21.95;65.24
4972;BME280;2501;51.214;6.768;2023-06-22T05:41:27;101360.84;;;21.92;65.56
4972;BME280;2501;51.214;6.768;2023-06-22T05:43:56;101356.44;;;21.63;66.16
4972;BME280;2501;51.214;6.768;2023-06-22T05:46:24;101360.94;;;21.89;65.64
4972;BME280;2501;51.214;6.768;2023-06-22T05:48:53;101355.44;;;21.95;65.60
4972;BME280;2501;51.214;6.768;2023-06-22T05:51:22;101344.72;;;21.67;65.47
4972;BME280;2501;51.214;6.768;2023-06-22T05:53:51;101350.34;;;21.86;65.95
4972;BME280;2501;51.214;6.768;2023-06-22T05:56:22;101354.81;;;21.85;66.26
4972;BME280;2501;51.214;6.768;2023-06-22T05:58:51;101341.94;;;22.00;65.47
4972;BME280;2501;51.214;6.768;2023-06-22T06:01:19;101348.91;;;21.76;65.81
4972;BME280;2501;51.214;6.768;2023-06-22T06:03:48;101352.03;;;22.18;65.44
4972;BME280;2501;51.214;6.768;2023-06-22T06:06:18;101348.78;;;21.80;66.42
4972;BME280;2501;51.214;6.768;2023-06-22T06:08:46;101353.72;;;22.20;63.99
4972;BME280;2501;51.214;6.768;2023-06-22T06:11:15;101346.28;;;21.74;65.53
4972;BME280;2501;51.214;6.768;2023-06-22T06:13:46;101358.47;;;21.83;65.41
4972;BME280;2501;51.214;6.768;2023-06-22T06:16:14;101361.69;;;22.22;64.64
4972;BME280;2501;51.214;6.768;2023-06-22T06:18:42;101366.06;;;22.25;64.42
4972;BME280;2501;51.214;6.768;2023-06-22T06:21:11;101356.41;;;22.20;64.97
4972;BME280;2501;51.214;6.768;2023-06-22T06:23:39;101365.06;;;22.29;63.76
4972;BME280;2501;51.214;6.768;2023-06-22T06:26:08;101363.81;;;22.12;64.01
4972;BME280;2501;51.214;6.768;2023-06-22T06:28:36;101363.75;;;22.14;64.54
4972;BME280;2501;51.214;6.768;2023-06-22T06:31:09;101358.38;;;22.15;64.26
4972;BME280;2501;51.214;6.768;2023-06-22T06:33:42;101358.22;;;22.46;63.09
4972;BME280;2501;51.214;6.768;2023-06-22T06:36:10;101361.72;;;22.48;62.71
4972;BME280;2501;51.214;6.768;2023-06-22T06:38:39;101357.25;;;22.49;63.41
4972;BME280;2501;51.214;6.768;2023-06-22T06:41:07;101363.06;;;22.07;64.80
4972;BME280;2501;51.214;6.768;2023-06-22T06:43:36;101357.59;;;22.38;65.19
4972;BME280;2501;51.214;6.768;2023-06-22T06:46:04;101363.44;;;22.51;64.61
4972;BME280;2501;51.214;6.768;2023-06-22T06:48:35;101358.44;;;22.14;65.52
4972;BME280;2501;51.214;6.768;2023-06-22T06:51:05;101357.91;;;22.29;67.04
4972;BME280;2501;51.214;6.768;2023-06-22T06:53:34;101368.09;;;21.88;70.88
4972;BME280;2501;51.214;6.768;2023-06-22T06:56:03;101357.84;;;21.75;73.14
4972;BME280;2501;51.214;6.768;2023-06-22T06:58:32;101360.09;;;21.59;74.33
4972;BME280;2501;51.214;6.768;2023-06-22T07:01:01;101364.59;;;21.57;73.99
4972;BME280;2501;51.214;6.768;2023-06-22T07:03:30;101356.63;;;22.14;72.73
4972;BME280;2501;51.214;6.768;2023-06-22T07:06:01;101359.53;;;21.48;75.46
4972;BME280;2501;51.214;6.768;2023-06-22T07:08:29;101355.91;;;21.50;76.02
4972;BME280;2501;51.214;6.768;2023-06-22T07:10:58;101365.84;;;21.45;77.26
4972;BME280;2501;51.214;6.768;2023-06-22T07:13:27;101355.75;;;21.26;77.48
4972;BME280;2501;51.214;6.768;2023-06-22T07:15:56;101343.44;;;21.51;76.81
4972;BME280;2501;51.214;6.768;2023-06-22T07:18:24;101343.09;;;21.91;74.04
4972;BME280;2501;51.214;6.768;2023-06-22T07:20:53;101341.06;;;21.70;74.50
4972;BME280;2501;51.214;6.768;2023-06-22T07:23:25;101340.06;;;21.74;75.18
4972;BME280;2501;51.214;6.768;2023-06-22T07:25:53;101338.38;;;21.71;76.46
4972;BME280;2501;51.214;6.768;2023-06-22T07:28:21;101343.94;;;21.34;78.38
4972;BME280;2501;51.214;6.768;2023-06-22T07:30:50;101351.78;;;21.08;81.13
4972;BME280;2501;51.214;6.768;2023-06-22T07:33:19;101347.91;;;20.87;82.47
4972;BME280;2501;51.214;6.768;2023-06-22T07:35:47;101341.00;;;20.78;85.07
4972;BME280;2501;51.214;6.768;2023-06-22T07:38:17;101339.63;;;20.96;85.71
4972;BME280;2501;51.214;6.768;2023-06-22T07:40:48;101321.75;;;21.32;82.76
4972;BME280;2501;51.214;6.768;2023-06-22T07:43:18;101328.16;;;20.94;83.46
4972;BME280;2501;51.214;6.768;2023-06-22T07:45:48;101316.19;;;21.40;82.66
4972;BME280;2501;51.214;6.768;2023-06-22T07:48:20;101321.38;;;21.13;82.60
4972;BME280;2501;51.214;6.768;2023-06-22T07:50:49;101309.97;;;21.39;83.87
4972;BME280;2501;51.214;6.768;2023-06-22T07:53:18;101310.72;;;21.44;83.01
4972;BME280;2501;51.214;6.768;2023-06-22T07:55:49;101294.59;;;21.77;81.06
4972;BME280;2501;51.214;6.768;2023-06-22T07:58:18;101296.56;;;22.26;80.75
4972;BME280;2501;51.214;6.768;2023-06-22T08:00:47;101286.06;;;22.20;79.96
4972;BME280;2501;51.214;6.768;2023-06-22T08:03:16;101271.72;;;22.22;79.41
4972;BME280;2501;51.214;6.768;2023-06-22T08:05:45;101266.69;;;22.40;79.58
4972;BME280;2501;51.214;6.768;2023-06-22T08:08:14;101265.06;;;22.61;78.91
4972;BME280;2501;51.214;6.768;2023-06-22T08:10:42;101263.41;;;22.05;80.80
4972;BME280;2501;51.214;6.768;2023-06-22T08:13:14;101260.94;;;22.77;80.58
4972;BME280;2501;51.214;6.768;2023-06-22T08:15:42;101251.34;;;22.95;78.42
4972;BME280;2501;51.214;6.768;2023-06-22T08:18:11;101250.38;;;22.97;77.55
4972;BME280;2501;51.214;6.768;2023-06-22T08:20:40;101248.31;;;22.80;78.98
4972;BME280;2501;51.214;6.768;2023-06-22T08:23:08;101244.81;;;23.48;77.40
4972;BME280;2501;51.214;6.768;2023-06-22T08:25:37;101239.28;;;23.97;74.71
4972;BME280;2501;51.214;6.768;2023-06-22T08:28:05;101243.34;;;23.63;75.16
4972;BME280;2501;51.214;6.768;2023-06-22T08:30:36;101240.31;;;24.14;75.39
4972;BME280;2501;51.214;6.768;2023-06-22T08:33:04;101236.56;;;23.31;76.76
4972;BME280;2501;51.214;6.768;2023-06-22T08:35:33;101241.31;;;23.46;77.82
4972;BME280;2501;51.214;6.768;2023-06-22T08:38:01;101246.22;;;23.80;76.62
4972;BME280;2501;51.214;6.768;2023-06-22T08:40:30;101243.84;;;23.73;74.22
4972;BME280;2501;51.214;6.768;2023-06-22T08:42:58;101235.75;;;23.29;75.57
4972;BME280;2501;51.214;6.768;2023-06-22T08:45:27;101234.75;;;23.77;75.06
4972;BME280;2501;51.214;6.768;2023-06-22T08:47:58;101228.84;;;24.33;72.29
4972;BME280;2501;51.214;6.768;2023-06-22T08:50:27;101221.06;;;24.26;72.49
4972;BME280;2501;51.214;6.768;2023-06-22T08:52:55;101217.06;;;24.15;72.41
4972;BME280;2501;51.214;6.768;2023-06-22T08:55:24;101215.31;;;24.36;72.44
4972;BME280;2501;51.214;6.768;2023-06-22T08:57:52;101207.91;;;24.61;71.56
4972;BME280;2501;51.214;6.768;2023-06-22T09:00:21;101199.34;;;24.53;69.47
4972;BME280;2501;51.214;6.768;2023-06-22T09:02:49;101196.47;;;24.57;68.51
4972;BME280;2501;51.214;6.768;2023-06-22T09:05:20;101188.06;;;24.65;68.66
4972;BME280;2501;51.214;6.768;2023-06-22T09:07:48;101199.09;;;24.78;67.07
4972;BME280;2501;51.214;6.768;2023-06-22T09:10:17;101194.50;;;25.19;65.60
4972;BME280;2501;51.214;6.768;2023-06-22T09:12:45;101190.28;;;25.32;64.67
4972;BME280;2501;51.214;6.768;2023-06-22T09:15:14;101182.47;;;25.27;64.98
4972;BME280;2501;51.214;6.768;2023-06-22T09:17:43;101187.13;;;25.05;64.66
4972;BME280;2501;51.214;6.768;2023-06-22T09:20:12;101191.84;;;25.74;64.67
4972;BME280;2501;51.214;6.768;2023-06-22T09:22:43;101197.59;;;25.66;63.04
4972;BME280;2501;51.214;6.768;2023-06-22T09:25:12;101198.81;;;25.59;63.81
4972;BME280;2501;51.214;6.768;2023-06-22T09:27:41;101185.41;;;26.47;61.88
4972;BME280;2501;51.214;6.768;2023-06-22T09:30:09;101169.88;;;25.83;62.23
4972;BME280;2501;51.214;6.768;2023-06-22T09:32:38;101164.19;;;26.06;62.30
4972;BME280;2501;51.214;6.768;2023-06-22T09:35:08;101160.19;;;26.15;61.92
4972;BME280;2501;51.214;6.768;2023-06-22T09:37:38;101153.69;;;25.84;60.85
4972;BME280;2501;51.214;6.768;2023-06-22T09:40:10;101151.47;;;26.44;59.78
4972;BME280;2501;51.214;6.768;2023-06-22T09:42:42;101146.13;;;26.60;55.50
4972;BME280;2501;51.214;6.768;2023-06-22T09:45:10;101141.78;;;26.57;54.71
4972;BME280;2501;51.214;6.768;2023-06-22T09:47:39;101133.03;;;26.69;53.87
4972;BME280;2501;51.214;6.768;2023-06-22T09:50:08;101139.69;;;27.27;53.56
4972;BME280;2501;51.214;6.768;2023-06-22T09:52:39;101133.47;;;26.62;55.94
4972;BME280;2501;51.214;6.768;2023-06-22T09:55:12;101134.28;;;26.47;56.53
4972;BME280;2501;51.214;6.768;2023-06-22T09:57:41;101132.94;;;26.87;56.27
4972;BME280;2501;51.214;6.768;2023-06-22T10:00:11;101133.16;;;27.47;54.67
4972;BME280;2501;51.214;6.768;2023-06-22T10:02:41;101125.59;;;26.42;56.63
4972;BME280;2501;51.214;6.768;2023-06-22T10:05:09;101132.00;;;26.88;56.19
4972;BME280;2501;51.214;6.768;2023-06-22T10:07:38;101128.47;;;26.54;58.09
4972;BME280;2501;51.214;6.768;2023-06-22T10:10:09;101123.38;;;26.98;56.71
4972;BME280;2501;51.214;6.768;2023-06-22T10:12:41;101122.03;;;27.21;55.84
4972;BME280;2501;51.214;6.768;2023-06-22T10:15:11;101131.25;;;27.33;55.37
4972;BME280;2501;51.214;6.768;2023-06-22T10:17:39;101137.88;;;26.96;55.86
4972;BME280;2501;51.214;6.768;2023-06-22T10:20:08;101138.13;;;27.23;55.34
4972;BME280;2501;51.214;6.768;2023-06-22T10:22:39;101138.13;;;27.07;55.99
4972;BME280;2501;51.214;6.768;2023-06-22T10:25:09;101143.94;;;27.31;55.89
4972;BME280;2501;51.214;6.768;2023-06-22T10:27:40;101137.38;;;26.72;59.21
4972;BME280;2501;51.214;6.768;2023-06-22T10:30:10;101142.81;;;26.55;59.11
4972;BME280;2501;51.214;6.768;2023-06-22T10:32:40;101151.84;;;26.37;60.31
4972;BME280;2501;51.214;6.768;2023-06-22T10:35:09;101170.50;;;26.22;61.71
4972;BME280;2501;51.214;6.768;2023-06-22T10:37:41;101177.25;;;26.14;62.12
4972;BME280;2501;51.214;6.768;2023-06-22T10:40:12;101168.03;;;25.66;64.10
4972;BME280;2501;51.214;6.768;2023-06-22T10:42:43;101174.63;;;25.78;63.83
4972;BME280;2501;51.214;6.768;2023-06-22T10:45:11;101177.06;;;25.82;63.97
4972;BME280;2501;51.214;6.768;2023-06-22T10:47:40;101189.84;;;25.41;70.45
4972;BME280;2501;51.214;6.768;2023-06-22T10:50:09;101201.22;;;24.51;78.20
4972;BME280;2501;51.214;6.768;2023-06-22T10:52:38;101209.81;;;23.97;79.79
4972;BME280;2501;51.214;6.768;2023-06-22T10:55:07;101217.03;;;23.52;84.93
4972;BME280;2501;51.214;6.768;2023-06-22T10:57:36;101227.50;;;23.12;90.82
4972;BME280;2501;51.214;6.768;2023-06-22T11:00:11;101244.53;;;22.86;96.38
4972;BME280;2501;51.214;6.768;2023-06-22T11:02:40;101256.13;;;22.35;100.00
4972;BME280;2501;51.214;6.768;2023-06-22T11:05:08;101265.59;;;22.19;100.00
4972;BME280;2501;51.214;6.768;2023-06-22T11:07:37;101261.16;;;21.92;100.00
4972;BME280;2501;51.214;6.768;2023-06-22T11:10:07;101259.13;;;22.00;100.00
4972;BME280;2501;51.214;6.768;2023-06-22T11:12:36;101254.03;;;21.92;100.00
4972;BME280;2501;51.214;6.768;2023-06-22T11:15:05;101251.25;;;22.48;100.00
4972;BME280;2501;51.214;6.768;2023-06-22T11:17:36;101246.22;;;22.14;100.00
4972;BME280;2501;51.214;6.768;2023-06-22T11:20:06;101242.88;;;22.07;100.00
4972;BME280;2501;51.214;6.768;2023-06-22T11:22:36;101235.53;;;22.14;100.00
4972;BME280;2501;51.214;6.768;2023-06-22T11:25:06;101221.72;;;21.73;100.00
4972;BME280;2501;51.214;6.768;2023-06-22T11:27:34;101214.78;;;21.68;100.00
4972;BME280;2501;51.214;6.768;2023-06-22T11:30:04;101207.97;;;21.59;100.00
4972;BME280;2501;51.214;6.768;2023-06-22T11:32:33;101205.94;;;21.66;100.00
4972;BME280;2501;51.214;6.768;2023-06-22T11:35:04;101183.94;;;21.59;100.00
4972;BME280;2501;51.214;6.768;2023-06-22T11:37:33;101180.88;;;21.43;100.00
4972;BME280;2501;51.214;6.768;2023-06-22T11:40:01;101162.88;;;21.22;100.00
4972;BME280;2501;51.214;6.768;2023-06-22T11:42:32;101147.13;;;21.42;100.00
4972;BME280;2501;51.214;6.768;2023-06-22T11:45:00;101138.47;;;21.34;100.00
4972;BME280;2501;51.214;6.768;2023-06-22T11:47:30;101122.50;;;21.33;100.00
4972;BME280;2501;51.214;6.768;2023-06-22T11:49:58;101112.66;;;21.35;100.00
4972;BME280;2501;51.214;6.768;2023-06-22T11:52:29;101107.28;;;21.36;100.00
4972;BME280;2501;51.214;6.768;2023-06-22T11:54:58;101092.88;;;21.42;100.00
4972;BME280;2501;51.214;6.768;2023-06-22T11:57:29;101073.19;;;21.46;100.00
4972;BME280;2501;51.214;6.768;2023-06-22T11:59:57;101045.78;;;21.41;100.00
4972;BME280;2501;51.214;6.768;2023-06-22T12:02:25;101045.66;;;21.44;100.00
4972;BME280;2501;51.214;6.768;2023-06-22T12:04:54;101044.16;;;21.35;100.00
4972;BME280;2501;51.214;6.768;2023-06-22T12:07:23;101052.03;;;21.40;100.00
4972;BME280;2501;51.214;6.768;2023-06-22T12:09:54;101055.28;;;21.74;100.00
4972;BME280;2501;51.214;6.768;2023-06-22T12:12:23;101066.63;;;22.06;100.00
4972;BME280;2501;51.214;6.768;2023-06-22T12:14:51;101068.31;;;22.08;100.00
4972;BME280;2501;51.214;6.768;2023-06-22T12:17:19;101063.63;;;22.15;100.00
4972;BME280;2501;51.214;6.768;2023-06-22T12:19:48;101072.44;;;22.17;100.00
4972;BME280;2501;51.214;6.768;2023-06-22T12:22:16;101067.31;;;22.34;100.00
4972;BME280;2501;51.214;6.768;2023-06-22T12:24:45;101066.47;;;22.10;100.00
4972;BME280;2501;51.214;6.768;2023-06-22T12:27:17;101060.00;;;21.91;100.00
4972;BME280;2501;51.214;6.768;2023-06-22T12:29:46;101047.06;;;21.80;100.00
4972;BME280;2501;51.214;6.768;2023-06-22T12:32:15;101039.41;;;21.70;100.00
4972;BME280;2501;51.214;6.768;2023-06-22T12:34:44;101036.16;;;21.62;100.00
4972;BME280;2501;51.214;6.768;2023-06-22T12:37:13;101028.78;;;21.93;100.00
4972;BME280;2501;51.214;6.768;2023-06-22T12:39:41;101033.88;;;21.76;100.00
4972;BME280;2501;51.214;6.768;2023-06-22T12:42:10;101039.50;;;21.67;100.00
4972;BME280;2501;51.214;6.768;2023-06-22T12:44:41;101036.13;;;21.86;100.00
4972;BME280;2501;51.214;6.768;2023-06-22T12:47:10;101037.41;;;22.01;100.00
4972;BME280;2501;51.214;6.768;2023-06-22T12:49:38;101027.25;;;22.11;100.00
4972;BME280;2501;51.214;6.768;2023-06-22T12:52:09;101031.28;;;22.46;100.00
4972;BME280;2501;51.214;6.768;2023-06-22T12:54:38;101025.59;;;22.32;100.00
4972;BME280;2501;51.214;6.768;2023-06-22T12:57:06;101025.34;;;22.14;100.00
4972;BME280;2501;51.214;6.768;2023-06-22T12:59:35;101023.25;;;22.91;100.00
4972;BME280;2501;51.214;6.768;2023-06-22T13:02:06;101034.19;;;22.16;100.00
4972;BME280;2501;51.214;6.768;2023-06-22T13:04:34;101033.94;;;22.46;100.00
4972;BME280;2501;51.214;6.768;2023-06-22T13:07:03;101037.75;;;22.85;100.00
4972;BME280;2501;51.214;6.768;2023-06-22T13:09:32;101020.69;;;23.10;100.00
4972;BME280;2501;51.214;6.768;2023-06-22T13:12:00;101009.72;;;23.38;99.85
4972;BME280;2501;51.214;6.768;2023-06-22T13:14:28;101015.88;;;22.74;100.00
4972;BME280;2501;51.214;6.768;2023-06-22T13:16:57;101009.53;;;23.41;100.00
4972;BME280;2501;51.214;6.768;2023-06-22T13:19:28;101009.41;;;23.23;99.70
4972;BME280;2501;51.214;6.768;2023-06-22T13:21:58;101004.88;;;23.46;100.00